Time;durP1;ratioP1;P1;durP2;ratioP2;P2;SDS_P1;SDS_P2;PMS_P1;PMS_P2;Temp;Humidity;BMP_temperature;BMP_pressure;BME280_temperature;BME280_humidity;BME280_pressure;Samples;Min_cycle;Max_cycle;Signal;HPM_P1;HPM_P2
2021/01/04 00:02:26;;;;;;;80.77;30.95;;;;;;;0.68;94.30;100897.33;1751137;81;21602;-63
2021/01/04 00:05:04;;;;;;;69.03;29.07;;;;;;;0.67;94.33;100891.67;1751184;81;21281;-64
2021/01/04 00:08:02;;;;;;;70.47;31.50;;;;;;;0.68;94.21;100895.59;1751153;81;21194;-64
2021/01/04 00:10:59;;;;;;;70.28;30.80;;;;;;;0.67;94.24;100891.67;1751264;81;21167;-64
2021/01/04 00:13:32;;;;;;;71.92;30.60;;;;;;;0.70;94.33;100895.63;1750863;81;21210;-64
2021/01/04 00:16:14;;;;;;;61.95;27.15;;;;;;;0.71;94.36;100901.25;1750851;81;22765;-63
2021/01/04 00:18:59;;;;;;;64.58;27.27;;;;;;;0.72;94.45;100898.69;1750926;81;22108;-65
2021/01/04 00:21:35;;;;;;;62.67;28.73;;;;;;;0.75;94.40;100893.97;1736828;81;22136;-64
2021/01/04 00:24:40;;;;;;;84.05;34.50;;;;;;;0.77;94.26;100893.58;1751026;81;21142;-64
2021/01/04 00:27:36;;;;;;;80.10;33.02;;;;;;;0.74;94.36;100892.24;1750986;81;21681;-63
2021/01/04 00:30:12;;;;;;;59.40;24.80;;;;;;;0.76;94.40;100890.52;1740600;81;21649;-64
2021/01/04 00:32:40;;;;;;;66.00;28.27;;;;;;;0.76;94.36;100886.62;1748423;81;22389;-64
2021/01/04 00:35:13;;;;;;;87.75;34.67;;;;;;;0.80;94.41;100880.64;1750883;81;21657;-64
2021/01/04 00:38:06;;;;;;;82.50;35.43;;;;;;;0.78;94.46;100881.05;1751027;81;21587;-63
2021/01/04 00:41:02;;;;;;;70.62;29.45;;;;;;;0.75;94.49;100882.30;1750886;81;21182;-63
2021/01/04 00:43:39;;;;;;;77.37;33.92;;;;;;;0.78;94.51;100877.16;1750483;81;21210;-64
2021/01/04 00:46:06;;;;;;;88.40;36.20;;;;;;;0.81;94.55;100883.70;1751391;81;21232;-64
2021/01/04 00:48:43;;;;;;;80.62;33.35;;;;;;;0.81;94.54;100875.92;1769551;81;21144;-63
2021/01/04 00:51:41;;;;;;;88.87;35.58;;;;;;;0.81;94.54;100878.09;1769480;80;21167;-64
2021/01/04 00:54:40;;;;;;;85.03;36.53;;;;;;;0.83;94.51;100872.94;1787921;80;21216;-64
2021/01/04 00:57:19;;;;;;;85.95;37.03;;;;;;;0.84;94.51;100882.44;1787981;80;21185;-64
2021/01/04 01:00:26;;;;;;;85.17;36.50;;;;;;;0.84;94.54;100872.94;1788160;80;21414;-64
2021/01/04 01:03:19;;;;;;;91.85;36.28;;;;;;;0.88;94.57;100880.78;1788006;80;21203;-63
2021/01/04 01:06:03;;;;;;;79.55;32.90;;;;;;;0.87;94.53;100873.83;1787903;80;21635;-63
2021/01/04 01:08:35;;;;;;;83.82;33.90;;;;;;;0.86;94.52;100882.05;1787890;80;21121;-63
2021/01/04 01:11:14;;;;;;;77.97;32.33;;;;;;;0.86;94.48;100878.16;1788090;80;21181;-63
2021/01/04 01:14:05;;;;;;;71.77;29.15;;;;;;;0.87;94.46;100877.72;1788025;80;21790;-63
2021/01/04 01:16:40;;;;;;;;;;;;;;;0.87;94.40;100878.59;1779101;80;21588;-63
2021/01/04 01:19:42;;;;;;;77.20;33.42;;;;;;;0.88;94.54;100877.75;1763788;81;20271;-62
2021/01/04 01:22:21;;;;;;;81.30;33.58;;;;;;;0.90;94.58;100873.47;1763769;81;22221;-63
2021/01/04 01:24:49;;;;;;;77.97;33.25;;;;;;;0.93;94.49;100882.58;1782266;80;21095;-64
2021/01/04 01:27:57;;;;;;;72.95;32.17;;;;;;;0.92;94.44;100875.66;1782038;80;21244;-64
2021/01/04 01:30:50;;;;;;;69.20;30.77;;;;;;;0.91;94.39;100876.49;1781864;80;21752;-63
2021/01/04 01:33:53;;;;;;;78.62;33.85;;;;;;;0.93;94.49;100882.58;1782031;80;21150;-64
2021/01/04 01:37:06;;;;;;;70.25;29.00;;;;;;;0.96;94.48;100872.23;1782160;80;21190;-63
2021/01/04 01:40:09;;;;;;;82.85;34.45;;;;;;;0.97;94.41;100867.94;1782063;79;21154;-63
2021/01/04 01:43:01;;;;;;;85.20;36.95;;;;;;;1.00;94.46;100872.73;1781674;80;21372;-63
2021/01/04 01:45:59;;;;;;;80.00;34.73;;;;;;;1.00;94.44;100874.02;1781719;80;21178;-62
2021/01/04 01:49:09;;;;;;;72.87;29.30;;;;;;;1.03;94.46;100868.87;1725753;83;21666;-63
2021/01/04 01:51:54;;;;;;;69.80;29.52;;;;;;;1.06;94.34;100868.07;1725770;83;21218;-63
2021/01/04 01:54:51;;;;;;;79.62;33.75;;;;;;;1.09;94.30;100869.83;1710995;83;21175;-63
2021/01/04 01:58:01;;;;;;;75.27;34.03;;;;;;;1.15;94.24;100871.19;1914042;74;22855;-62
2021/01/04 02:00:58;;;;;;;75.50;34.38;;;;;;;1.07;93.94;100865.05;1851643;77;21146;-63
2021/01/04 02:03:35;;;;;;;66.57;28.17;;;;;;;1.10;93.95;100865.07;1825542;78;21421;-63
2021/01/04 02:06:31;;;;;;;68.20;30.35;;;;;;;1.07;94.05;100879.31;1825793;78;21154;-64
2021/01/04 02:09:07;;;;;;;79.12;32.33;;;;;;;1.05;93.98;100874.95;1826626;78;21570;-64
2021/01/04 02:11:58;;;;;;;78.70;34.92;;;;;;;1.10;93.98;100867.67;1810683;78;21178;-64
2021/01/04 02:14:52;;;;;;;;;;;;;;;1.10;93.99;100869.83;1736897;78;21213;-63
2021/01/04 02:17:51;;;;;;;68.02;28.32;;;;;;;1.11;94.02;100868.13;1814058;77;21366;-64
2021/01/04 02:21:04;;;;;;;76.70;33.02;;;;;;;1.10;94.01;100871.56;1800770;78;21191;-65
2021/01/04 02:24:08;;;;;;;73.65;33.20;;;;;;;1.12;93.96;100868.56;1780747;79;21640;-64
2021/01/04 02:26:43;;;;;;;80.05;34.48;;;;;;;1.12;94.04;100872.45;1840499;77;21622;-63
2021/01/04 02:29:13;;;;;;;74.40;33.08;;;;;;;1.12;94.10;100865.53;1829515;77;21199;-64
2021/01/04 02:31:47;;;;;;;77.10;33.42;;;;;;;1.15;94.19;100867.30;1836422;77;21587;-63
2021/01/04 02:34:17;;;;;;;76.87;32.33;;;;;;;1.19;94.05;100866.48;1827276;77;21193;-64
2021/01/04 02:36:52;;;;;;;62.10;29.02;;;;;;;1.18;94.03;100855.25;1799522;77;21169;-63
2021/01/04 02:39:40;;;;;;;85.35;37.10;;;;;;;1.20;94.05;100861.77;1820952;77;21137;-64
2021/01/04 02:42:19;;;;;;;75.87;33.73;;;;;;;1.18;93.95;100860.87;1833215;77;21607;-65
2021/01/04 02:44:46;;;;;;;83.78;35.58;;;;;;;1.20;93.89;100868.25;1825046;77;22041;-63
2021/01/04 02:47:44;;;;;;;75.25;33.80;;;;;;;1.20;93.90;100871.71;1832586;77;21220;-63
2021/01/04 02:50:48;;;;;;;59.13;25.12;;;;;;;1.21;93.89;100880.36;1856762;74;21572;-64
2021/01/04 02:53:44;;;;;;;65.35;28.17;;;;;;;1.18;93.86;100875.14;1785205;79;21560;-63
2021/01/04 02:56:40;;;;;;;78.85;32.67;;;;;;;1.18;93.81;100874.70;1798298;78;21273;-63
2021/01/04 02:59:45;;;;;;;72.85;32.50;;;;;;;1.21;93.95;100882.95;1793360;79;21371;-64
2021/01/04 03:02:21;;;;;;;85.87;36.28;;;;;;;1.20;93.94;100882.52;1782438;79;21903;-65
2021/01/04 03:04:49;;;;;;;85.12;34.63;;;;;;;1.19;94.08;100875.14;1858779;75;21154;-66
2021/01/04 03:07:30;;;;;;;78.42;34.30;;;;;;;1.22;94.09;100885.98;1873979;76;21673;-65
2021/01/04 03:09:59;;;;;;;79.82;34.90;;;;;;;1.26;94.11;100883.88;1821017;77;22422;-63
2021/01/04 03:12:33;;;;;;;71.45;31.93;;;;;;;1.29;94.10;100886.53;1800868;78;21279;-65
2021/01/04 03:15:37;;;;;;;75.97;31.55;;;;;;;1.29;94.11;100882.64;1796257;78;21260;-65
2021/01/04 03:18:19;;;;;;;77.12;33.63;;;;;;;1.28;93.98;100879.59;1824055;78;21535;-64
2021/01/04 03:20:47;;;;;;;73.37;31.87;;;;;;;1.30;93.90;100870.09;1817025;77;21214;-63
2021/01/04 03:23:14;;;;;;;78.20;32.85;;;;;;;1.30;94.02;100869.23;1823490;77;21311;-62
2021/01/04 03:25:56;;;;;;;86.92;35.70;;;;;;;1.30;94.02;100875.28;1829755;77;21276;-62
2021/01/04 03:28:28;;;;;;;84.75;34.98;;;;;;;1.30;94.08;100877.88;1834207;77;21197;-63
2021/01/04 03:30:57;;;;;;;68.80;30.48;;;;;;;1.33;94.01;100867.53;1833355;77;21673;-63
2021/01/04 03:33:25;;;;;;;80.97;34.65;;;;;;;1.35;94.07;100869.72;1815785;77;21253;-62
2021/01/04 03:35:53;;;;;;;91.30;35.98;;;;;;;1.35;94.09;100873.61;1809717;77;21284;-63
2021/01/04 03:38:22;;;;;;;92.62;36.17;;;;;;;1.36;94.10;100870.62;1820327;77;21413;-64
2021/01/04 03:40:50;;;;;;;84.65;33.92;;;;;;;1.36;93.96;100859.80;1823121;77;21163;-65
2021/01/04 03:43:18;;;;;;;77.37;34.25;;;;;;;1.37;94.04;100861.53;1784038;79;21999;-64
2021/01/04 03:45:45;;;;;;;91.87;37.65;;;;;;;1.36;94.05;100855.91;1771568;80;21526;-63
2021/01/04 03:48:14;;;;;;;93.12;38.28;;;;;;;1.36;93.98;100866.30;1768496;80;21643;-63
2021/01/04 03:50:42;;;;;;;68.62;29.70;;;;;;;1.35;94.03;100867.13;1843734;77;21574;-63
2021/01/04 03:53:12;;;;;;;68.60;30.08;;;;;;;1.38;93.98;100872.38;1746802;80;21240;-65
2021/01/04 03:55:41;;;;;;;71.00;29.57;;;;;;;1.39;94.07;100870.21;1758814;80;21653;-64
2021/01/04 03:58:10;;;;;;;76.17;32.25;;;;;;;1.38;94.12;100873.67;1835118;77;21154;-64
2021/01/04 04:00:37;;;;;;;80.42;35.35;;;;;;;1.36;94.13;100863.70;1838147;77;21128;-64
2021/01/04 04:03:05;;;;;;;83.97;35.03;;;;;;;1.40;94.14;100866.78;1843013;77;21184;-65
2021/01/04 04:05:33;;;;;;;75.97;33.00;;;;;;;1.42;94.06;100857.26;1843430;77;21702;-64
2021/01/04 04:08:02;;;;;;;73.78;30.80;;;;;;;1.40;93.96;100854.20;1843319;77;21588;-64
2021/01/04 04:10:31;;;;;;;70.55;32.03;;;;;;;1.37;94.08;100854.17;1843337;77;21647;-63
2021/01/04 04:12:59;;;;;;;65.35;29.00;;;;;;;1.38;94.07;100854.61;1841510;77;21697;-65
2021/01/04 04:15:26;;;;;;;70.83;28.32;;;;;;;1.38;94.00;100855.91;1842610;77;21707;-64
2021/01/04 04:17:54;;;;;;;77.37;31.70;;;;;;;1.38;94.12;100864.59;1837374;77;21650;-63
2021/01/04 04:20:24;;;;;;;69.67;31.17;;;;;;;1.35;94.25;100854.15;1843218;77;21168;-63
2021/01/04 04:22:54;;;;;;;71.65;31.15;;;;;;;1.39;94.20;100854.64;1835980;77;21234;-63
2021/01/04 04:25:23;;;;;;;51.42;22.50;;;;;;;1.39;94.16;100854.64;1835970;77;21117;-64
2021/01/04 04:27:53;;;;;;;80.90;34.25;;;;;;;1.37;94.20;100856.34;1840389;77;21250;-62
2021/01/04 04:30:23;;;;;;;74.87;31.62;;;;;;;1.38;94.31;100860.70;1832022;77;21797;-62
2021/01/04 04:32:54;;;;;;;73.70;31.57;;;;;;;1.38;94.40;100858.10;1833603;77;21205;-63
2021/01/04 04:35:22;;;;;;;69.67;27.80;;;;;;;1.37;94.38;100851.59;1826631;77;21676;-63
2021/01/04 04:37:50;;;;;;;71.12;31.68;;;;;;;1.36;94.47;100841.64;1842386;77;21396;-62
2021/01/04 04:40:23;;;;;;;69.50;29.77;;;;;;;1.38;94.49;100836.04;1836897;77;22344;-62
2021/01/04 04:42:56;;;;;;;87.45;31.70;;;;;;;1.39;94.67;100845.98;1838674;77;21550;-63
2021/01/04 04:45:24;;;;;;;67.25;29.12;;;;;;;1.35;94.70;100839.88;1831881;77;21237;-63
2021/01/04 04:48:40;;;;;;;76.57;31.33;;;;;;;1.32;94.75;100847.63;1836299;77;21275;-63
2021/01/04 04:51:40;;;;;;;74.10;30.00;;;;;;;1.28;94.93;100838.06;1779674;79;21181;-62
2021/01/04 04:54:31;;;;;;;63.92;27.87;;;;;;;1.29;95.05;100841.13;1841512;77;23652;-64
2021/01/04 04:57:19;;;;;;;103.97;38.63;;;;;;;1.32;95.16;100843.74;1835237;77;21208;-64
2021/01/04 05:00:13;;;;;;;76.50;32.15;;;;;;;1.30;95.25;100838.09;1815593;77;21137;-64
2021/01/04 05:03:03;;;;;;;79.47;30.37;;;;;;;1.32;95.19;100832.06;1832863;77;21168;-63
2021/01/04 05:05:48;;;;;;;73.83;30.02;;;;;;;1.33;95.24;100832.50;1792161;77;21650;-64
2021/01/04 05:08:38;;;;;;;72.17;31.37;;;;;;;1.31;95.27;100838.13;1814874;77;21498;-63
2021/01/04 05:11:06;;;;;;;80.47;31.02;;;;;;;1.30;95.33;100841.55;1810344;77;21648;-65
2021/01/04 05:13:41;;;;;;;72.12;31.57;;;;;;;1.28;95.49;100836.77;1848295;77;21184;-62
2021/01/04 05:16:15;;;;;;;71.67;32.60;;;;;;;1.28;95.54;100835.47;1839692;77;21194;-63
2021/01/04 05:19:09;;;;;;;73.37;30.77;;;;;;;1.30;95.58;100835.06;1830160;77;21674;-65
2021/01/04 05:22:09;;;;;;;62.40;25.80;;;;;;;1.29;95.62;100835.93;1830523;76;21209;-65
2021/01/04 05:25:16;;;;;;;75.25;31.40;;;;;;;1.28;95.65;100835.91;1796728;77;21585;-64
2021/01/04 05:28:19;;;;;;;62.00;27.13;;;;;;;1.28;95.74;100834.61;1816889;76;21668;-64
2021/01/04 05:30:58;;;;;;;72.55;28.98;;;;;;;1.27;95.82;100831.14;1794429;79;21601;-63
2021/01/04 05:33:52;;;;;;;68.57;30.02;;;;;;;1.25;95.87;100838.03;1832812;77;21139;-64
2021/01/04 05:36:52;;;;;;;73.95;31.02;;;;;;;1.25;95.92;100839.33;1800153;79;21362;-64
2021/01/04 05:39:28;;;;;;;49.00;20.88;;;;;;;1.26;95.97;100834.58;1834860;77;21122;-66
2021/01/04 05:42:17;;;;;;;65.97;26.65;;;;;;;1.24;95.98;100836.28;1833762;77;21480;-65
2021/01/04 05:45:02;;;;;;;66.80;27.37;;;;;;;1.22;96.00;100845.76;1832089;77;21625;-65
2021/01/04 05:47:59;;;;;;;62.62;25.43;;;;;;;1.25;96.01;100844.52;1840008;77;21182;-64
2021/01/04 05:50:59;;;;;;;50.85;20.88;;;;;;;1.26;96.06;100848.84;1827855;77;22259;-65
2021/01/04 05:53:27;;;;;;;71.30;31.23;;;;;;;1.25;96.07;100853.61;1827349;77;21139;-63
2021/01/04 05:55:57;;;;;;;74.10;32.60;;;;;;;1.28;96.01;100858.82;1841568;77;21594;-64
2021/01/04 05:58:30;;;;;;;66.60;27.67;;;;;;;1.29;96.07;100857.98;1792537;78;21199;-63
2021/01/04 06:01:14;;;;;;;65.60;30.45;;;;;;;1.31;96.01;100860.18;1773146;79;21186;-62
2021/01/04 06:03:42;;;;;;;66.90;27.60;;;;;;;1.31;95.95;100853.70;1796885;78;21373;-64
2021/01/04 06:06:27;;;;;;;60.88;25.48;;;;;;;1.32;95.94;100850.66;1816448;78;21115;-65
2021/01/04 06:09:05;;;;;;;71.72;31.42;;;;;;;1.34;95.96;100851.13;1815647;77;21147;-63
2021/01/04 06:11:32;;;;;;;68.95;28.30;;;;;;;1.32;95.96;100854.13;1802820;78;21182;-64
2021/01/04 06:14:04;;;;;;;66.67;27.30;;;;;;;1.34;95.91;100860.20;1810271;78;21206;-65
2021/01/04 06:16:32;;;;;;;69.70;29.95;;;;;;;1.36;95.89;100860.23;1856217;76;22200;-64
2021/01/04 06:19:10;;;;;;;56.85;25.17;;;;;;;1.37;95.86;100855.48;1862119;76;21633;-65
2021/01/04 06:21:46;;;;;;;64.27;27.20;;;;;;;1.38;95.81;100859.40;1861558;76;21739;-64
2021/01/04 06:24:28;;;;;;;69.07;30.30;;;;;;;1.39;95.73;100857.67;1861906;76;21278;-66
2021/01/04 06:27:00;;;;;;;57.35;25.45;;;;;;;1.41;95.72;100856.83;1832577;75;21569;-65
2021/01/04 06:29:32;;;;;;;56.30;24.98;;;;;;;1.43;95.68;100851.23;1766057;76;21357;-73
2021/01/04 06:31:59;;;;;;;61.42;28.15;;;;;;;1.40;95.70;100859.00;1710246;81;21254;-72
2021/01/04 06:34:37;;;;;;;57.58;27.45;;;;;;;1.44;95.64;100865.08;1719668;81;21198;-72
2021/01/04 06:37:15;;;;;;;61.25;26.60;;;;;;;1.45;95.61;100864.23;1679905;83;21187;-72
2021/01/04 06:39:45;;;;;;;60.70;27.25;;;;;;;1.45;95.67;100872.89;1652099;83;21198;-74
2021/01/04 06:42:18;;;;;;;64.65;29.35;;;;;;;1.46;95.58;100868.56;1722154;81;21254;-73
2021/01/04 06:45:36;;;;;;;64.07;28.33;;;;;;;1.51;95.56;100872.52;1748162;75;22979;-64
2021/01/04 06:48:31;;;;;;;62.05;27.67;;;;;;;1.44;95.58;100872.43;1703789;84;21130;-64
2021/01/04 06:51:53;;;;;;;55.73;25.35;;;;;;;1.48;95.58;100872.05;1725655;82;21334;-62
2021/01/04 06:54:45;;;;;;;62.23;27.97;;;;;;;1.49;95.65;100873.78;1688608;82;21995;-63
2021/01/04 06:57:38;;;;;;;58.50;25.77;;;;;;;1.46;95.68;100877.22;1647666;84;21175;-64
2021/01/04 07:00:33;;;;;;;60.85;27.80;;;;;;;1.49;95.72;100880.70;1706256;79;21228;-73
2021/01/04 07:03:29;;;;;;;58.45;26.42;;;;;;;1.49;95.67;100880.70;1688849;83;21612;-75
2021/01/04 07:06:11;;;;;;;61.25;27.35;;;;;;;1.46;95.65;100882.41;1689825;84;22564;-72
2021/01/04 07:09:21;;;;;;;57.55;24.25;;;;;;;1.49;95.67;100880.70;1681931;83;21254;-73
2021/01/04 07:12:09;;;;;;;63.02;27.62;;;;;;;1.52;95.61;100872.55;1648113;85;21609;-71
2021/01/04 07:15:00;;;;;;;60.20;28.90;;;;;;;1.54;95.52;100877.33;1689793;84;21168;-72
2021/01/04 07:17:57;;;;;;;58.28;26.15;;;;;;;1.55;95.54;100879.49;1690447;84;21591;-72
2021/01/04 07:20:56;;;;;;;63.60;30.30;;;;;;;1.53;95.41;100879.89;1655787;86;21377;-65
2021/01/04 07:23:46;;;;;;;65.80;30.15;;;;;;;1.54;95.48;100868.64;1655509;85;21201;-66
2021/01/04 07:26:45;;;;;;;68.45;28.52;;;;;;;1.57;95.57;100867.41;1655220;85;21189;-64
2021/01/04 07:29:56;;;;;;;60.45;29.85;;;;;;;1.59;95.52;100861.80;1656721;86;22235;-64
2021/01/04 07:32:48;;;;;;;70.37;32.95;;;;;;;1.65;95.49;100856.66;1617500;88;21807;-64
2021/01/04 07:35:48;;;;;;;75.37;33.98;;;;;;;1.67;95.30;100857.55;1663952;83;21651;-71
2021/01/04 07:38:42;;;;;;;71.17;33.97;;;;;;;1.74;95.22;100845.07;1821502;77;23735;-70
2021/01/04 07:41:39;;;;;;;68.15;32.08;;;;;;;1.70;95.17;100853.67;1749296;81;21273;-71
2021/01/04 07:44:30;;;;;;;71.30;32.42;;;;;;;1.73;95.19;100853.73;1739935;81;22381;-72
2021/01/04 07:47:34;;;;;;;72.53;33.92;;;;;;;1.75;95.05;100857.22;1724033;82;21215;-71
2021/01/04 07:50:33;;;;;;;71.07;32.58;;;;;;;1.76;95.08;100860.25;1736093;82;22227;-71
2021/01/04 07:55:05;;;;;;;76.10;34.80;;;;;;;1.83;95.01;100857.29;1766124;79;22496;-71
2021/01/04 07:58:21;;;;;;;71.90;32.78;;;;;;;1.76;94.97;100856.78;1745315;80;21563;-72
2021/01/04 08:01:19;;;;;;;69.27;30.37;;;;;;;1.80;94.88;100854.67;1683949;84;21466;-74
2021/01/04 08:03:55;;;;;;;71.20;33.58;;;;;;;1.86;94.83;100847.81;1658954;84;21709;-73
2021/01/04 08:07:05;;;;;;;76.40;33.80;;;;;;;1.88;94.81;100853.87;1657787;80;21270;-67
2021/01/04 08:10:00;;;;;;;73.90;33.13;;;;;;;1.89;94.56;100843.94;1647079;85;21243;-65
2021/01/04 08:13:06;;;;;;;72.95;32.35;;;;;;;1.93;94.63;100849.16;1594823;88;21219;-66
2021/01/04 08:15:53;;;;;;;72.03;32.63;;;;;;;1.97;94.64;100850.94;1622073;87;22318;-65
2021/01/04 08:18:22;;;;;;;80.20;35.00;;;;;;;2.00;94.39;100860.05;1607185;88;21525;-65
2021/01/04 08:21:24;;;;;;;77.82;32.53;;;;;;;1.97;94.12;100869.11;1628535;86;21147;-65
2021/01/04 08:24:25;;;;;;;72.67;33.08;;;;;;;1.93;94.03;100877.73;1609969;86;21235;-66
2021/01/04 08:27:32;;;;;;;81.85;37.53;;;;;;;1.94;94.14;100869.09;1601996;88;21215;-65
2021/01/04 08:30:14;;;;;;;71.92;33.95;;;;;;;1.94;94.30;100871.70;1602756;88;21398;-65
2021/01/04 08:32:53;;;;;;;78.05;33.53;;;;;;;1.95;94.26;100864.33;1618748;88;21281;-65
2021/01/04 08:35:32;;;;;;;82.10;34.85;;;;;;;1.96;94.28;100876.05;1644060;82;21621;-73
2021/01/04 08:38:21;;;;;;;72.80;33.02;;;;;;;1.97;94.23;100871.28;1677009;84;22156;-72
2021/01/04 08:41:11;;;;;;;81.37;35.48;;;;;;;1.98;94.28;100865.65;1743388;82;21201;-73
2021/01/04 08:43:43;;;;;;;83.37;35.03;;;;;;;1.99;94.33;100863.08;1748378;80;23084;-72
2021/01/04 08:46:18;;;;;;;84.22;37.60;;;;;;;1.99;94.23;100868.27;1765881;80;21189;-72
2021/01/04 08:48:46;;;;;;;96.05;40.10;;;;;;;2.03;94.23;100879.58;1747834;80;21622;-74
2021/01/04 08:51:33;;;;;;;84.55;37.63;;;;;;;2.03;94.39;100876.98;1647068;87;21241;-66
2021/01/04 08:54:22;;;;;;;72.20;32.50;;;;;;;2.06;94.26;100866.61;1647935;87;21190;-65
2021/01/04 08:57:06;;;;;;;77.82;36.13;;;;;;;2.08;94.36;100877.89;1648678;87;21649;-66
2021/01/04 08:59:35;;;;;;;81.02;35.98;;;;;;;2.12;94.30;100874.88;1645112;85;21180;-65
2021/01/04 09:02:24;;;;;;;81.53;37.83;;;;;;;2.15;94.26;100875.78;1639307;87;21207;-65
2021/01/04 09:05:05;;;;;;;79.87;34.63;;;;;;;2.18;94.19;100869.31;1639149;87;21212;-65
2021/01/04 09:07:34;;;;;;;75.80;34.70;;;;;;;2.19;94.00;100872.37;1654139;86;21140;-73
2021/01/04 09:10:16;;;;;;;85.42;37.75;;;;;;;2.22;93.84;100878.88;1672275;85;21299;-73
2021/01/04 09:12:54;;;;;;;80.27;37.20;;;;;;;2.30;93.90;100869.44;1828243;76;22617;-72
2021/01/04 09:15:27;;;;;;;76.10;36.25;;;;;;;2.30;93.95;100864.23;1784395;79;21144;-72
2021/01/04 09:18:10;;;;;;;81.15;35.15;;;;;;;2.35;93.64;100853.87;1749555;79;21402;-72
2021/01/04 09:21:04;;;;;;;74.97;35.38;;;;;;;2.37;93.30;100859.06;1732754;79;21236;-66
2021/01/04 09:23:37;;;;;;;84.13;38.08;;;;;;;2.38;93.31;100855.62;1716277;83;21173;-65
2021/01/04 09:26:13;;;;;;;75.42;33.75;;;;;;;2.40;93.22;100853.91;1705822;83;21676;-66
2021/01/04 09:28:52;;;;;;;105.32;41.85;;;;;;;2.45;93.01;100857.41;1698758;84;21291;-65
2021/01/04 09:31:19;;;;;;;80.10;34.33;;;;;;;2.46;92.92;100851.34;1697330;84;22285;-65
2021/01/04 09:33:50;;;;;;;80.60;34.15;;;;;;;2.43;92.84;100855.23;1698353;84;21658;-65
2021/01/04 09:36:22;;;;;;;82.85;37.40;;;;;;;2.44;92.86;100858.26;1673047;84;22084;-65
2021/01/04 09:39:08;;;;;;;87.33;38.20;;;;;;;2.51;92.92;100852.27;1698518;84;21841;-66
2021/01/04 09:41:36;;;;;;;80.30;34.92;;;;;;;2.54;92.87;100852.28;1698514;84;21098;-65
2021/01/04 09:44:11;;;;;;;74.37;34.08;;;;;;;2.56;92.62;100860.97;1698264;84;21367;-67
2021/01/04 09:47:01;;;;;;;72.92;34.50;;;;;;;2.57;92.23;100857.94;1699183;84;21193;-65
2021/01/04 09:49:42;;;;;;;69.20;32.08;;;;;;;2.57;92.27;100862.70;1697832;84;21198;-64
2021/01/04 09:52:39;;;;;;;72.32;31.75;;;;;;;2.62;92.48;100858.42;1697270;83;21200;-65
2021/01/04 09:55:10;;;;;;;114.20;44.30;;;;;;;2.65;92.61;100854.53;1699355;83;21676;-65
2021/01/04 09:57:45;;;;;;;80.35;34.65;;;;;;;2.67;92.22;100859.32;1699895;84;21748;-65
2021/01/04 10:00:24;;;;;;;125.33;48.70;;;;;;;2.69;92.26;100851.10;1699461;84;21122;-65
2021/01/04 10:03:09;;;;;;;105.22;42.62;;;;;;;2.71;92.17;100851.09;1699593;84;21882;-65
2021/01/04 10:05:43;;;;;;;170.12;56.45;;;;;;;2.72;92.10;100842.02;1699592;83;21115;-65
2021/01/04 10:08:24;;;;;;;74.30;35.88;;;;;;;2.76;91.79;100834.22;1699667;83;21189;-66
2021/01/04 10:11:03;;;;;;;116.45;44.23;;;;;;;2.73;91.62;100838.53;1699547;84;22143;-64
2021/01/04 10:13:35;;;;;;;130.07;49.70;;;;;;;2.75;91.78;100841.59;1699638;84;21185;-64
2021/01/04 10:16:06;;;;;;;140.05;53.15;;;;;;;2.78;92.04;100831.20;1699549;83;21188;-66
2021/01/04 10:18:58;;;;;;;123.62;48.15;;;;;;;2.81;91.89;100835.14;1699816;84;21209;-65
2021/01/04 10:21:48;;;;;;;128.35;49.23;;;;;;;2.83;91.81;100832.09;1699469;82;21189;-67
2021/01/04 10:24:27;;;;;;;134.13;53.10;;;;;;;2.85;91.95;100839.47;1699378;83;22259;-66
2021/01/04 10:27:00;;;;;;;105.45;43.15;;;;;;;2.83;91.78;100833.39;1698882;83;21438;-65
2021/01/04 10:29:28;;;;;;;75.83;32.60;;;;;;;2.84;91.81;100836.45;1698865;84;21244;-67
2021/01/04 10:32:07;;;;;;;77.75;34.53;;;;;;;2.85;91.52;100835.56;1699137;84;21680;-65
2021/01/04 10:34:44;;;;;;;93.20;42.33;;;;;;;2.83;91.28;100834.69;1699057;83;21170;-66
2021/01/04 10:37:30;;;;;;;104.92;44.08;;;;;;;2.78;91.44;100822.09;1698302;84;21369;-64
2021/01/04 10:40:11;;;;;;;80.20;36.10;;;;;;;2.78;91.44;100822.09;1701675;83;21267;-65
2021/01/04 10:42:39;;;;;;;;;;;;;;;2.80;91.36;100826.44;1707063;79;21815;-78
2021/01/04 10:45:17;;;;;;;81.97;36.38;;;;;;;2.82;91.57;100829.06;1715992;83;20282;-77
2021/01/04 10:47:52;;;;;;;106.65;42.60;;;;;;;2.82;91.63;100822.12;1701927;82;21627;-77
2021/01/04 10:50:36;;;;;;;86.28;36.85;;;;;;;2.84;91.58;100818.23;1733886;82;22109;-75
2021/01/04 10:53:09;;;;;;;301.05;83.35;;;;;;;2.83;91.17;100816.07;1749793;81;21138;-75
2021/01/04 10:55:51;;;;;;;116.62;43.00;;;;;;;2.71;91.42;100823.37;1808762;79;21140;-76
2021/01/04 10:58:29;;;;;;;144.05;58.30;;;;;;;2.71;91.42;100823.37;1795308;79;21753;-77
2021/01/04 11:01:04;;;;;;;96.57;40.03;;;;;;;2.68;91.35;100826.38;1804114;79;21148;-65
2021/01/04 11:03:32;;;;;;;83.62;37.00;;;;;;;2.71;91.34;100831.59;1713279;82;22415;-66
2021/01/04 11:06:00;;;;;;;91.63;39.92;;;;;;;2.73;91.70;100830.73;1727843;83;21164;-63
2021/01/04 11:08:32;;;;;;;88.20;37.83;;;;;;;2.76;91.53;100825.11;1749753;80;21149;-64
2021/01/04 11:11:34;;;;;;;77.47;35.10;;;;;;;2.75;91.50;100828.59;1773503;79;21176;-65
2021/01/04 11:14:15;;;;;;;69.20;30.82;;;;;;;2.71;91.09;100831.18;1732337;82;21241;-65
2021/01/04 11:16:52;;;;;;;68.42;30.92;;;;;;;2.69;91.22;100844.60;1742432;80;21202;-77
2021/01/04 11:19:33;;;;;;;84.20;36.98;;;;;;;2.69;91.66;100843.30;1740587;82;21173;-76
2021/01/04 11:22:20;;;;;;;76.47;34.27;;;;;;;2.72;91.91;100851.55;1715865;83;21234;-76
2021/01/04 11:24:48;;;;;;;137.50;52.13;;;;;;;2.76;91.66;100855.02;1708100;82;21176;-75
2021/01/04 11:27:17;;;;;;;87.15;38.40;;;;;;;2.78;91.74;100844.20;1786783;80;21123;-76
2021/01/04 11:29:45;;;;;;;73.87;33.90;;;;;;;2.75;91.64;100838.99;1780648;80;21313;-78
2021/01/04 11:32:13;;;;;;;80.20;34.92;;;;;;;2.75;91.64;100838.99;1770858;77;21192;-64
2021/01/04 11:34:47;;;;;;;75.60;33.53;;;;;;;2.77;91.36;100839.88;1772529;80;21651;-64
2021/01/04 11:37:17;;;;;;;65.60;31.33;;;;;;;2.80;91.32;100837.28;1767311;78;21134;-63
2021/01/04 11:39:46;;;;;;;108.92;42.70;;;;;;;2.77;91.09;100828.17;1745816;81;26616;-62
2021/01/04 11:42:13;;;;;;;101.82;40.60;;;;;;;2.73;91.25;100828.12;1738814;81;21537;-64
2021/01/04 11:44:42;;;;;;;90.72;39.08;;;;;;;2.73;91.37;100819.03;1693332;84;21217;-65
2021/01/04 11:47:10;;;;;;;83.60;36.95;;;;;;;2.72;91.10;100817.73;1727098;80;21207;-81
2021/01/04 11:49:37;;;;;;;125.35;46.65;;;;;;;2.71;91.05;100818.17;1710891;81;21164;-82
2021/01/04 11:52:05;;;;;;;101.87;40.83;;;;;;;2.73;91.26;100813.82;1680383;84;21178;-84
2021/01/04 11:54:32;;;;;;;109.75;40.28;;;;;;;2.74;91.22;100816.02;1732410;77;21672;-89
2021/01/04 11:57:00;;;;;;;259.65;78.90;;;;;;;2.69;91.01;100814.69;1755614;81;21138;-89
2021/01/04 11:59:27;;;;;;;118.50;42.62;;;;;;;2.66;90.94;100813.35;1753837;81;21146;-88
2021/01/04 12:01:55;;;;;;;150.85;51.48;;;;;;;2.63;90.82;100814.64;1746806;79;21673;-66
2021/01/04 12:04:23;;;;;;;85.45;38.25;;;;;;;2.62;90.87;100814.22;1762657;79;21166;-64
2021/01/04 12:06:51;;;;;;;76.90;35.03;;;;;;;2.61;91.00;100819.40;1768167;79;21300;-65
2021/01/04 12:09:18;;;;;;;90.28;37.73;;;;;;;2.62;91.04;100812.92;1728715;81;21227;-63
2021/01/04 12:11:48;;;;;;;96.87;37.03;;;;;;;2.61;90.89;100812.89;1761616;79;21677;-63
2021/01/04 12:14:17;;;;;;;115.70;44.95;;;;;;;2.60;90.90;100818.53;1754215;79;21184;-63
2021/01/04 12:16:45;;;;;;;87.62;39.63;;;;;;;2.55;90.97;100821.51;1753218;78;21267;-81
2021/01/04 12:19:12;;;;;;;106.30;43.17;;;;;;;2.56;90.96;100823.70;1691915;84;21211;-80
2021/01/04 12:21:40;;;;;;;80.85;36.40;;;;;;;2.57;90.96;100843.20;1734271;81;21272;-82
2021/01/04 12:24:10;;;;;;;103.47;44.10;;;;;;;2.52;90.91;100848.80;1711245;82;21195;-82
2021/01/04 12:26:38;;;;;;;79.85;36.05;;;;;;;2.49;91.03;100847.48;1733533;82;21195;-82